Time;durP1;ratioP1;P1;durP2;ratioP2;P2;SDS_P1;SDS_P2;PMS_P1;PMS_P2;Temp;Humidity;BMP_temperature;BMP_pressure;BME280_temperature;BME280_humidity;BME280_pressure;Samples;Min_cycle;Max_cycle;Signal;HPM_P1;HPM_P2
2023/09/25 00:02:13;;;;;;;25.30;23.20;;;;;;;;;;5111330;27;20372;-80
2023/09/25 00:04:38;;;;;;;26.35;23.92;;;;;;;;;;5101346;27;20059;-80
2023/09/25 00:07:04;;;;;;;27.17;24.65;;;;;;;;;;5104212;27;20039;-79
2023/09/25 00:09:29;;;;;;;26.35;23.88;;;;;;;;;;5107812;27;20036;-80
2023/09/25 00:11:54;;;;;;;25.80;23.48;;;;;;;;;;5109900;27;20481;-81
2023/09/25 00:14:20;;;;;;;27.88;25.38;;;;;;;;;;5105712;27;20092;-79
2023/09/25 00:16:45;;;;;;;27.50;25.20;;;;;;;;;;5113888;27;20027;-79
2023/09/25 00:19:13;;;;;;;25.75;23.38;;;;;;;;;;5113259;27;20031;-84
2023/09/25 00:21:40;;;;;;;30.20;27.70;;;;;;;;;;5103063;27;20084;-80
2023/09/25 00:24:06;;;;;;;27.02;24.63;;;;;;;;;;5100735;27;20416;-82
2023/09/25 00:26:31;;;;;;;26.67;24.35;;;;;;;;;;5102356;27;20039;-85
2023/09/25 00:28:57;;;;;;;27.27;24.88;;;;;;;;;;5106196;27;20027;-81
2023/09/25 00:31:22;;;;;;;27.08;24.67;;;;;;;;;;5105826;27;20036;-83
2023/09/25 00:33:47;;;;;;;24.77;22.52;;;;;;;;;;5109280;27;20070;-79
2023/09/25 00:36:13;;;;;;;25.95;23.55;;;;;;;;;;5111809;28;20023;-79
2023/09/25 00:38:38;;;;;;;25.30;23.20;;;;;;;;;;5111743;27;20465;-82
2023/09/25 00:41:03;;;;;;;27.35;24.63;;;;;;;;;;5110434;28;20115;-79
2023/09/25 00:43:29;;;;;;;27.17;24.92;;;;;;;;;;5111296;28;20058;-82
2023/09/25 00:45:54;;;;;;;27.00;24.52;;;;;;;;;;5111900;28;20031;-79
2023/09/25 00:48:26;;;;;;;27.33;24.75;;;;;;;;;;5103848;28;20030;-82
2023/09/25 00:50:53;;;;;;;26.42;24.02;;;;;;;;;;5110213;28;20714;-79
2023/09/25 00:53:19;;;;;;;26.70;24.33;;;;;;;;;;5108988;27;20038;-78
2023/09/25 00:55:44;;;;;;;25.45;22.98;;;;;;;;;;5105473;27;20034;-78
2023/09/25 00:58:11;;;;;;;27.25;24.85;;;;;;;;;;5104806;28;20037;-79
2023/09/25 01:00:36;;;;;;;26.60;24.20;;;;;;;;;;5107479;28;20065;-84
2023/09/25 01:03:02;;;;;;;25.52;23.30;;;;;;;;;;5108902;27;20119;-80
2023/09/25 01:05:28;;;;;;;25.73;23.38;;;;;;;;;;5103978;28;20027;-79
2023/09/25 01:07:53;;;;;;;25.10;22.92;;;;;;;;;;5099447;28;20038;-77
2023/09/25 01:10:19;;;;;;;24.67;22.27;;;;;;;;;;5102358;27;20387;-77
2023/09/25 01:12:45;;;;;;;23.00;21.00;;;;;;;;;;5110068;27;20414;-82
2023/09/25 01:15:10;;;;;;;23.27;20.92;;;;;;;;;;5113254;28;20066;-80
2023/09/25 01:17:36;;;;;;;24.45;22.13;;;;;;;;;;5111496;27;20480;-79
2023/09/25 01:20:12;;;;;;;25.38;22.92;;;;;;;;;;5109463;28;20035;-82
2023/09/25 01:22:41;;;;;;;25.00;22.80;;;;;;;;;;5108370;28;20042;-80
2023/09/25 01:25:10;;;;;;;24.05;21.58;;;;;;;;;;5112334;28;20542;-77
2023/09/25 01:27:36;;;;;;;23.85;21.65;;;;;;;;;;5112259;28;20027;-77
2023/09/25 01:30:01;;;;;;;23.38;21.27;;;;;;;;;;5109019;28;20036;-79
2023/09/25 01:32:28;;;;;;;23.67;21.55;;;;;;;;;;5111678;27;20058;-78
2023/09/25 01:34:53;;;;;;;22.15;20.05;;;;;;;;;;5108033;28;20024;-82
2023/09/25 01:37:19;;;;;;;22.25;20.15;;;;;;;;;;5108574;28;20354;-83
2023/09/25 01:39:44;;;;;;;23.42;21.27;;;;;;;;;;5109956;28;20120;-80
2023/09/25 01:42:09;;;;;;;22.17;20.27;;;;;;;;;;5110641;27;20022;-79
2023/09/25 01:44:35;;;;;;;23.88;21.55;;;;;;;;;;5113439;27;20031;-78
2023/09/25 01:47:00;;;;;;;25.27;22.83;;;;;;;;;;5117111;27;20028;-80
2023/09/25 01:49:27;;;;;;;22.10;20.00;;;;;;;;;;5117309;27;20023;-78
2023/09/25 01:51:52;;;;;;;21.55;19.55;;;;;;;;;;5113401;27;23351;-82
2023/09/25 01:54:18;;;;;;;21.90;19.90;;;;;;;;;;5114944;27;20038;-78
2023/09/25 01:56:44;;;;;;;21.75;19.52;;;;;;;;;;5113630;27;20462;-80
2023/09/25 01:59:10;;;;;;;22.67;20.52;;;;;;;;;;5118695;27;20019;-77
2023/09/25 02:01:36;;;;;;;23.10;20.95;;;;;;;;;;5110991;27;20039;-76
2023/09/25 02:04:01;;;;;;;22.95;20.73;;;;;;;;;;5111510;27;20122;-79
2023/09/25 02:06:26;;;;;;;21.55;19.55;;;;;;;;;;5106487;27;20115;-80
2023/09/25 02:08:52;;;;;;;22.95;20.95;;;;;;;;;;5113657;27;20028;-80
2023/09/25 02:11:17;;;;;;;22.63;20.55;;;;;;;;;;5106365;27;20108;-79
2023/09/25 02:13:42;;;;;;;23.10;20.90;;;;;;;;;;5111774;27;20126;-81
2023/09/25 02:16:09;;;;;;;20.80;18.50;;;;;;;;;;5107589;27;20804;-80
2023/09/25 02:18:34;;;;;;;21.25;19.25;;;;;;;;;;5113207;27;20023;-79
2023/09/25 02:21:00;;;;;;;20.83;18.85;;;;;;;;;;5117509;27;20029;-79
2023/09/25 02:23:25;;;;;;;20.00;17.88;;;;;;;;;;5114352;27;20438;-79
2023/09/25 02:25:50;;;;;;;18.40;16.60;;;;;;;;;;5113045;27;20372;-77
2023/09/25 02:28:16;;;;;;;18.70;17.00;;;;;;;;;;5113009;27;20093;-80
2023/09/25 02:30:41;;;;;;;18.27;16.40;;;;;;;;;;5116079;27;20069;-78
2023/09/25 02:33:06;;;;;;;18.02;16.20;;;;;;;;;;5113431;27;20058;-82
2023/09/25 02:35:32;;;;;;;17.60;15.73;;;;;;;;;;5112388;27;20084;-80
2023/09/25 02:37:58;;;;;;;17.63;14.35;;;;;;;;;;5109912;27;20037;-83
2023/09/25 02:40:24;;;;;;;17.83;13.88;;;;;;;;;;5115071;27;20427;-78
2023/09/25 02:42:49;;;;;;;16.77;12.15;;;;;;;;;;5112954;27;20409;-81
2023/09/25 02:45:15;;;;;;;12.88;9.13;;;;;;;;;;5114865;27;20194;-78
2023/09/25 02:47:40;;;;;;;14.00;8.88;;;;;;;;;;5115221;27;20396;-79
2023/09/25 02:50:06;;;;;;;11.93;9.30;;;;;;;;;;5118436;27;20346;-77
2023/09/25 02:52:31;;;;;;;14.88;9.18;;;;;;;;;;5114197;27;20015;-83
2023/09/25 02:54:56;;;;;;;15.65;8.93;;;;;;;;;;5113386;27;20053;-76
2023/09/25 02:57:22;;;;;;;11.43;8.68;;;;;;;;;;5115172;27;20024;-77
2023/09/25 02:59:49;;;;;;;13.50;8.27;;;;;;;;;;5111593;27;20410;-80
2023/09/25 03:02:14;;;;;;;18.98;9.45;;;;;;;;;;5111347;27;20023;-78
2023/09/25 03:04:39;;;;;;;17.52;8.98;;;;;;;;;;5115084;27;20045;-77
2023/09/25 03:07:04;;;;;;;14.52;9.30;;;;;;;;;;5109419;27;20062;-78
2023/09/25 03:09:30;;;;;;;18.67;10.32;;;;;;;;;;5109309;27;20554;-79
2023/09/25 03:11:55;;;;;;;10.95;8.50;;;;;;;;;;5114255;27;21088;-83
2023/09/25 03:14:20;;;;;;;15.82;9.60;;;;;;;;;;5104204;27;20106;-78
2023/09/25 03:16:49;;;;;;;12.68;9.73;;;;;;;;;;5112553;27;20027;-78
2023/09/25 03:19:14;;;;;;;15.93;10.23;;;;;;;;;;5115860;27;20454;-83
2023/09/25 03:21:41;;;;;;;13.88;9.85;;;;;;;;;;5114076;27;20050;-83
2023/09/25 03:24:07;;;;;;;13.18;10.38;;;;;;;;;;5145872;27;20041;-80
2023/09/25 03:26:32;;;;;;;16.90;10.95;;;;;;;;;;5115697;27;20035;-79
2023/09/25 03:28:57;;;;;;;16.85;10.55;;;;;;;;;;5113307;27;20033;-78
2023/09/25 03:31:23;;;;;;;11.70;10.50;;;;;;;;;;5109619;27;20061;-79
2023/09/25 03:33:48;;;;;;;12.30;10.43;;;;;;;;;;5108437;27;20047;-79
2023/09/25 03:36:13;;;;;;;13.75;10.13;;;;;;;;;;5113382;27;20111;-79
2023/09/25 03:38:39;;;;;;;15.20;11.32;;;;;;;;;;5111766;27;20058;-79
2023/09/25 03:41:04;;;;;;;14.50;10.52;;;;;;;;;;5102209;27;20416;-82
2023/09/25 03:43:30;;;;;;;13.10;11.02;;;;;;;;;;5111696;27;20031;-79
2023/09/25 03:45:55;;;;;;;17.45;11.25;;;;;;;;;;5109862;27;20628;-81
2023/09/25 03:48:21;;;;;;;16.27;11.80;;;;;;;;;;5108323;27;20058;-79
2023/09/25 03:50:46;;;;;;;13.93;11.68;;;;;;;;;;5110742;27;20072;-79
2023/09/25 03:53:11;;;;;;;16.63;10.50;;;;;;;;;;5110903;27;20328;-80
2023/09/25 03:55:38;;;;;;;13.40;10.32;;;;;;;;;;5114234;27;20063;-79
2023/09/25 03:58:03;;;;;;;13.90;11.13;;;;;;;;;;5117479;27;20035;-80
2023/09/25 04:00:29;;;;;;;12.93;11.35;;;;;;;;;;5111756;27;20024;-79
2023/09/25 04:02:54;;;;;;;14.82;10.73;;;;;;;;;;5109443;27;20801;-79
2023/09/25 04:05:19;;;;;;;15.63;11.55;;;;;;;;;;5101838;27;20026;-78
2023/09/25 04:07:45;;;;;;;12.65;11.30;;;;;;;;;;5101723;27;20107;-79
2023/09/25 04:10:11;;;;;;;16.60;12.50;;;;;;;;;;5102904;27;20487;-78
2023/09/25 04:12:36;;;;;;;18.58;11.98;;;;;;;;;;5102451;27;20027;-78
2023/09/25 04:15:02;;;;;;;13.13;11.80;;;;;;;;;;5102842;27;20349;-78
2023/09/25 04:17:28;;;;;;;14.70;11.40;;;;;;;;;;5103249;27;20458;-77
2023/09/25 04:19:53;;;;;;;17.67;12.73;;;;;;;;;;5103340;27;20021;-78
2023/09/25 04:22:20;;;;;;;14.95;12.52;;;;;;;;;;5105917;27;20031;-77
2023/09/25 04:24:46;;;;;;;14.95;12.68;;;;;;;;;;5112374;27;20435;-78
2023/09/25 04:27:11;;;;;;;14.48;11.75;;;;;;;;;;5114645;27;20027;-78
2023/09/25 04:29:38;;;;;;;14.77;12.00;;;;;;;;;;5112407;27;20031;-77
2023/09/25 04:32:04;;;;;;;13.88;11.95;;;;;;;;;;5102523;27;20031;-79
2023/09/25 04:34:29;;;;;;;16.80;12.75;;;;;;;;;;5109223;27;20066;-81
2023/09/25 04:36:58;;;;;;;13.00;11.20;;;;;;;;;;5113974;27;22721;-79
2023/09/25 04:39:24;;;;;;;17.48;11.45;;;;;;;;;;5096761;27;20031;-78
2023/09/25 04:41:49;;;;;;;16.23;11.95;;;;;;;;;;5091221;28;20015;-78
2023/09/25 04:44:15;;;;;;;14.70;12.20;;;;;;;;;;5095194;28;20039;-75
2023/09/25 04:46:40;;;;;;;19.40;12.73;;;;;;;;;;5108504;28;20025;-75
2023/09/25 04:49:08;;;;;;;14.48;12.77;;;;;;;;;;5114144;28;20059;-75
2023/09/25 04:51:34;;;;;;;15.20;13.55;;;;;;;;;;5106338;27;20023;-77
2023/09/25 04:54:00;;;;;;;13.48;12.18;;;;;;;;;;5101566;27;20037;-76
2023/09/25 04:56:27;;;;;;;16.67;13.73;;;;;;;;;;5111202;27;20023;-77
2023/09/25 04:58:52;;;;;;;14.77;12.60;;;;;;;;;;5111862;27;20062;-77
2023/09/25 05:01:17;;;;;;;12.70;11.45;;;;;;;;;;5110102;28;20072;-75
2023/09/25 05:03:43;;;;;;;16.63;13.07;;;;;;;;;;5107117;28;20028;-78
2023/09/25 05:06:10;;;;;;;14.38;12.45;;;;;;;;;;5110579;28;20023;-78
2023/09/25 05:08:36;;;;;;;13.95;12.52;;;;;;;;;;5104676;28;21070;-76
2023/09/25 05:11:01;;;;;;;16.42;12.75;;;;;;;;;;5109890;27;20036;-76
2023/09/25 05:13:26;;;;;;;13.23;11.88;;;;;;;;;;5112540;27;20419;-75
2023/09/25 05:15:52;;;;;;;15.57;12.10;;;;;;;;;;5111758;28;20026;-75
2023/09/25 05:18:17;;;;;;;13.45;12.05;;;;;;;;;;5116279;27;20365;-75
2023/09/25 05:20:43;;;;;;;16.17;12.77;;;;;;;;;;5115983;27;20020;-75
2023/09/25 05:23:08;;;;;;;14.43;11.43;;;;;;;;;;5116739;27;20038;-78
2023/09/25 05:25:33;;;;;;;14.15;10.82;;;;;;;;;;5115070;27;20038;-75
2023/09/25 05:27:59;;;;;;;13.75;11.77;;;;;;;;;;5117703;27;20039;-75
2023/09/25 05:30:24;;;;;;;20.25;12.95;;;;;;;;;;5114569;27;20439;-77
2023/09/25 05:32:51;;;;;;;17.10;12.95;;;;;;;;;;5112433;27;20049;-75
2023/09/25 05:35:17;;;;;;;20.13;12.82;;;;;;;;;;5116701;27;20020;-77
2023/09/25 05:37:45;;;;;;;15.70;13.65;;;;;;;;;;5116399;27;20086;-77
2023/09/25 05:40:11;;;;;;;15.73;12.52;;;;;;;;;;5117804;27;20043;-74
2023/09/25 05:42:40;;;;;;;17.05;12.77;;;;;;;;;;5109485;27;20156;-75
2023/09/25 05:45:06;;;;;;;13.93;12.63;;;;;;;;;;5105965;27;20044;-79
2023/09/25 05:47:32;;;;;;;15.23;13.02;;;;;;;;;;5134563;27;20340;-77
2023/09/25 05:49:57;;;;;;;13.68;12.38;;;;;;;;;;5110152;27;20023;-75
2023/09/25 05:52:22;;;;;;;14.43;12.02;;;;;;;;;;5107079;27;20170;-76
2023/09/25 05:54:49;;;;;;;15.25;13.05;;;;;;;;;;5107037;27;20194;-75
2023/09/25 05:57:14;;;;;;;13.90;12.35;;;;;;;;;;5110617;27;20114;-77
2023/09/25 05:59:40;;;;;;;13.20;11.90;;;;;;;;;;5111981;27;20126;-77
2023/09/25 06:02:05;;;;;;;13.82;12.35;;;;;;;;;;5108784;27;20032;-77
2023/09/25 06:04:35;;;;;;;13.40;12.00;;;;;;;;;;5112730;27;20024;-76
2023/09/25 06:07:00;;;;;;;12.55;11.13;;;;;;;;;;5106558;27;20114;-77
2023/09/25 06:09:25;;;;;;;14.77;12.30;;;;;;;;;;5106522;27;20103;-78
2023/09/25 06:11:51;;;;;;;13.38;11.98;;;;;;;;;;5106751;27;20431;-78
2023/09/25 06:14:16;;;;;;;14.90;13.20;;;;;;;;;;5107263;27;20139;-77
2023/09/25 06:16:41;;;;;;;13.02;11.77;;;;;;;;;;5108035;27;20027;-77
2023/09/25 06:19:08;;;;;;;13.77;12.38;;;;;;;;;;5107772;27;20448;-76
2023/09/25 06:21:33;;;;;;;13.40;11.90;;;;;;;;;;5109725;27;20020;-79
2023/09/25 06:23:59;;;;;;;13.55;12.38;;;;;;;;;;5107766;27;20034;-77
2023/09/25 06:26:27;;;;;;;14.25;12.73;;;;;;;;;;5117715;27;20940;-76
2023/09/25 06:28:53;;;;;;;15.85;13.70;;;;;;;;;;5118034;27;20031;-78
2023/09/25 06:31:18;;;;;;;15.48;13.88;;;;;;;;;;5107830;27;20058;-77
2023/09/25 06:33:45;;;;;;;16.63;14.85;;;;;;;;;;5108555;27;20137;-77
2023/09/25 06:36:11;;;;;;;16.38;14.68;;;;;;;;;;5109815;27;20023;-79
2023/09/25 06:38:36;;;;;;;15.43;13.90;;;;;;;;;;5115236;27;20483;-77
2023/09/25 06:41:01;;;;;;;16.17;13.80;;;;;;;;;;5113122;27;20034;-78
2023/09/25 06:43:27;;;;;;;14.55;13.13;;;;;;;;;;5111749;27;20051;-79
2023/09/25 06:45:54;;;;;;;14.60;13.07;;;;;;;;;;5111442;27;20038;-77
2023/09/25 06:48:21;;;;;;;15.70;14.02;;;;;;;;;;5114027;27;20019;-77
2023/09/25 06:50:46;;;;;;;13.63;12.25;;;;;;;;;;5116849;27;20094;-76
2023/09/25 06:53:12;;;;;;;13.20;11.90;;;;;;;;;;5116697;27;20774;-78
2023/09/25 06:55:43;;;;;;;17.50;12.70;;;;;;;;;;5112476;27;20032;-76
2023/09/25 06:58:08;;;;;;;16.13;12.05;;;;;;;;;;5113544;27;20023;-76
2023/09/25 07:00:34;;;;;;;18.73;10.90;;;;;;;;;;5107324;27;20103;-76
2023/09/25 07:03:02;;;;;;;13.60;12.18;;;;;;;;;;5100946;27;20454;-82
2023/09/25 07:05:28;;;;;;;14.93;12.05;;;;;;;;;;5129925;27;20103;-78
2023/09/25 07:07:54;;;;;;;12.40;11.18;;;;;;;;;;5098208;27;20083;-76
2023/09/25 07:10:19;;;;;;;12.32;11.02;;;;;;;;;;5103049;27;20074;-78
2023/09/25 07:12:45;;;;;;;15.82;10.93;;;;;;;;;;5131033;27;20515;-78
2023/09/25 07:15:10;;;;;;;14.40;10.07;;;;;;;;;;5101047;27;20019;-79
2023/09/25 07:17:38;;;;;;;11.68;10.02;;;;;;;;;;5107628;27;20053;-78
2023/09/25 07:20:07;;;;;;;12.07;9.52;;;;;;;;;;5114287;27;20055;-79
2023/09/25 07:22:33;;;;;;;12.63;9.95;;;;;;;;;;5113237;27;20061;-75
2023/09/25 07:24:59;;;;;;;12.38;9.27;;;;;;;;;;5111904;27;20035;-77
2023/09/25 07:27:34;;;;;;;;;;;;;;;;;;;;;
2023/09/25 07:30:10;;;;;;;13.18;9.15;;;;;;;;;;5112731;27;20020;-77
2023/09/25 07:32:37;;;;;;;9.63;8.63;;;;;;;;;;5113687;27;20040;-77
2023/09/25 07:35:09;;;;;;;10.80;8.98;;;;;;;;;;5115206;27;20033;-77
2023/09/25 07:37:37;;;;;;;10.85;8.68;;;;;;;;;;5104426;27;20023;-78
2023/09/25 07:40:08;;;;;;;10.25;8.95;;;;;;;;;;5096295;27;20058;-78
2023/09/25 07:42:36;;;;;;;9.45;8.50;;;;;;;;;;5098508;27;20024;-79
2023/09/25 07:45:05;;;;;;;11.73;8.52;;;;;;;;;;5096079;27;20097;-76
2023/09/25 07:47:40;;;;;;;8.85;8.02;;;;;;;;;;5098516;27;20015;-77
2023/09/25 07:50:19;;;;;;;9.18;8.27;;;;;;;;;;5098819;27;20123;-76
2023/09/25 07:52:48;;;;;;;10.23;7.90;;;;;;;;;;5096560;27;20444;-78
2023/09/25 07:55:14;;;;;;;9.82;8.30;;;;;;;;;;5095599;27;20019;-78
2023/09/25 07:57:43;;;;;;;9.55;7.68;;;;;;;;;;5096470;27;20023;-76
2023/09/25 08:00:23;;;;;;;8.30;7.50;;;;;;;;;;5099274;27;20027;-77
2023/09/25 08:02:52;;;;;;;8.52;7.75;;;;;;;;;;5096697;27;20020;-76
2023/09/25 08:05:22;;;;;;;9.00;7.85;;;;;;;;;;5103880;27;20477;-78
2023/09/25 08:07:48;;;;;;;10.48;8.02;;;;;;;;;;5111863;27;20020;-74
2023/09/25 08:10:14;;;;;;;10.65;7.43;;;;;;;;;;5113481;27;20019;-76
2023/09/25 08:12:39;;;;;;;9.25;7.18;;;;;;;;;;5103289;27;20066;-74
2023/09/25 08:15:06;;;;;;;8.27;6.47;;;;;;;;;;5107685;27;20032;-73
2023/09/25 08:17:31;;;;;;;8.25;6.60;;;;;;;;;;5108686;27;20027;-76
2023/09/25 08:19:57;;;;;;;8.60;6.93;;;;;;;;;;5102876;27;20054;-73
2023/09/25 08:22:22;;;;;;;9.32;6.57;;;;;;;;;;5093872;27;20080;-77
2023/09/25 08:24:47;;;;;;;9.63;7.32;;;;;;;;;;5102569;27;20031;-75
2023/09/25 08:27:13;;;;;;;8.27;7.00;;;;;;;;;;5101947;27;20024;-76
2023/09/25 08:29:38;;;;;;;8.70;6.85;;;;;;;;;;5098812;27;20079;-76
2023/09/25 08:32:04;;;;;;;8.00;6.65;;;;;;;;;;5105568;27;20034;-76
2023/09/25 08:34:30;;;;;;;12.98;7.07;;;;;;;;;;5103207;27;20358;-77
2023/09/25 08:36:55;;;;;;;8.18;6.72;;;;;;;;;;5101582;28;20490;-78
2023/09/25 08:39:23;;;;;;;8.43;7.05;;;;;;;;;;5101685;28;20019;-77
2023/09/25 08:41:49;;;;;;;10.85;7.10;;;;;;;;;;5094582;27;20366;-75
2023/09/25 08:44:15;;;;;;;7.80;7.00;;;;;;;;;;5097076;28;20031;-80
2023/09/25 08:46:41;;;;;;;9.95;6.95;;;;;;;;;;5093814;28;20020;-77
2023/09/25 08:49:09;;;;;;;7.55;6.95;;;;;;;;;;5091485;28;20222;-76
2023/09/25 08:51:35;;;;;;;7.55;6.57;;;;;;;;;;5094021;27;20743;-76
2023/09/25 08:54:03;;;;;;;8.68;7.15;;;;;;;;;;5104580;27;20028;-79
2023/09/25 08:56:50;;;;;;;11.05;6.38;;;;;;;;;;5103581;27;20023;-80
2023/09/25 08:59:16;;;;;;;9.40;6.72;;;;;;;;;;5108712;27;20027;-81
2023/09/25 09:01:42;;;;;;;9.43;6.78;;;;;;;;;;5107883;27;20073;-77
2023/09/25 09:04:07;;;;;;;9.18;6.90;;;;;;;;;;5105185;27;20028;-76
2023/09/25 09:06:33;;;;;;;14.50;6.72;;;;;;;;;;5108928;27;20439;-76
2023/09/25 09:08:58;;;;;;;8.15;6.50;;;;;;;;;;5105491;27;20051;-75
2023/09/25 09:11:24;;;;;;;7.00;6.30;;;;;;;;;;5105063;27;20361;-77
2023/09/25 09:13:49;;;;;;;7.18;6.10;;;;;;;;;;5096482;27;20038;-77
2023/09/25 09:16:16;;;;;;;7.35;6.65;;;;;;;;;;5102884;27;20050;-78
2023/09/25 09:18:42;;;;;;;7.82;6.45;;;;;;;;;;5107110;27;20034;-73
2023/09/25 09:21:24;;;;;;;10.32;7.00;;;;;;;;;;5096238;27;20020;-77
2023/09/25 09:23:50;;;;;;;8.88;6.57;;;;;;;;;;5106010;27;20016;-76
2023/09/25 09:26:15;;;;;;;7.28;6.57;;;;;;;;;;5105716;27;20354;-77
2023/09/25 09:28:42;;;;;;;6.90;6.25;;;;;;;;;;5106907;27;20027;-74
2023/09/25 09:31:08;;;;;;;8.02;6.20;;;;;;;;;;5104742;27;20501;-74
2023/09/25 09:33:37;;;;;;;8.68;6.00;;;;;;;;;;5104587;27;20048;-76
2023/09/25 09:36:02;;;;;;;6.78;6.15;;;;;;;;;;5105618;27;20034;-75
2023/09/25 09:38:28;;;;;;;8.40;7.18;;;;;;;;;;5103914;27;20031;-77
2023/09/25 09:40:54;;;;;;;6.72;5.80;;;;;;;;;;5111241;27;20027;-75
2023/09/25 09:43:20;;;;;;;6.93;6.30;;;;;;;;;;5114060;27;20027;-75
2023/09/25 09:45:49;;;;;;;7.07;6.40;;;;;;;;;;5108290;27;20031;-75
2023/09/25 09:48:15;;;;;;;;;;;;;;;;;;5094706;27;20113;-76
2023/09/25 09:50:44;;;;;;;7.60;6.90;;;;;;;;;;5096569;27;19935;-77
2023/09/25 09:53:09;;;;;;;7.00;6.32;;;;;;;;;;5098674;27;20027;-77
2023/09/25 09:55:36;;;;;;;7.32;6.63;;;;;;;;;;5099492;27;20491;-76
2023/09/25 09:58:03;;;;;;;8.32;6.25;;;;;;;;;;5096825;27;20449;-75
2023/09/25 10:00:28;;;;;;;7.60;6.35;;;;;;;;;;5100319;27;20042;-76
2023/09/25 10:02:55;;;;;;;7.88;6.30;;;;;;;;;;5113714;27;20047;-77
2023/09/25 10:05:21;;;;;;;8.15;6.88;;;;;;;;;;5109253;27;20142;-76
2023/09/25 10:08:03;;;;;;;9.57;6.65;;;;;;;;;;5117908;27;20027;-76
2023/09/25 10:10:29;;;;;;;7.47;6.60;;;;;;;;;;5115786;27;20027;-76
2023/09/25 10:12:56;;;;;;;10.40;6.90;;;;;;;;;;5112766;27;20019;-76
2023/09/25 10:15:23;;;;;;;9.63;7.18;;;;;;;;;;5117310;27;20031;-76
2023/09/25 10:17:48;;;;;;;9.40;6.88;;;;;;;;;;5117179;27;20035;-76
2023/09/25 10:20:33;;;;;;;7.90;6.20;;;;;;;;;;5119836;27;20029;-75
2023/09/25 10:23:02;;;;;;;8.07;6.60;;;;;;;;;;5114841;27;20197;-76
2023/09/25 10:25:30;;;;;;;10.75;6.57;;;;;;;;;;5117745;27;20057;-73
2023/09/25 10:27:56;;;;;;;8.10;6.07;;;;;;;;;;5118238;27;20033;-76
2023/09/25 10:30:22;;;;;;;11.98;7.03;;;;;;;;;;5109212;27;20019;-76
2023/09/25 10:32:51;;;;;;;8.77;7.00;;;;;;;;;;5115372;27;20039;-76
2023/09/25 10:35:35;;;;;;;8.23;6.43;;;;;;;;;;5116593;27;20466;-76
2023/09/25 10:38:11;;;;;;;8.32;6.90;;;;;;;;;;5114188;27;20349;-76
2023/09/25 10:40:37;;;;;;;9.85;6.75;;;;;;;;;;5117695;27;20042;-76
2023/09/25 10:43:03;;;;;;;9.30;6.38;;;;;;;;;;5115240;27;20039;-76
2023/09/25 10:45:28;;;;;;;8.02;6.88;;;;;;;;;;5107645;27;20063;-76
2023/09/25 10:47:53;;;;;;;8.18;7.25;;;;;;;;;;5117595;27;20441;-76
2023/09/25 10:50:19;;;;;;;7.57;6.82;;;;;;;;;;5114749;27;20027;-74
2023/09/25 10:52:44;;;;;;;9.65;6.85;;;;;;;;;;5120432;27;20034;-76
2023/09/25 10:55:10;;;;;;;7.60;6.90;;;;;;;;;;5115550;27;20838;-75
2023/09/25 10:57:36;;;;;;;7.70;6.90;;;;;;;;;;5114719;27;20011;-77
2023/09/25 11:00:09;;;;;;;7.78;7.00;;;;;;;;;;5116182;27;20039;-75
2023/09/25 11:02:34;;;;;;;7.82;7.00;;;;;;;;;;5113133;27;20110;-77
2023/09/25 11:05:02;;;;;;;16.08;7.47;;;;;;;;;;5115485;27;20110;-74
2023/09/25 11:07:27;;;;;;;7.40;6.70;;;;;;;;;;5120264;27;20106;-76
2023/09/25 11:09:53;;;;;;;7.45;6.75;;;;;;;;;;5116714;27;20465;-73
2023/09/25 11:12:18;;;;;;;7.90;6.88;;;;;;;;;;5115562;27;20027;-76
2023/09/25 11:14:43;;;;;;;7.30;6.60;;;;;;;;;;5114407;27;20096;-76
2023/09/25 11:17:09;;;;;;;7.75;6.40;;;;;;;;;;5112347;27;20038;-75
2023/09/25 11:19:34;;;;;;;12.63;7.10;;;;;;;;;;5109324;27;21272;-76
2023/09/25 11:22:01;;;;;;;7.70;6.90;;;;;;;;;;5108643;27;20027;-73
2023/09/25 11:24:28;;;;;;;12.02;7.45;;;;;;;;;;5116860;27;20149;-76
2023/09/25 11:26:53;;;;;;;9.48;6.68;;;;;;;;;;5117568;27;20023;-75
2023/09/25 11:29:19;;;;;;;8.50;6.50;;;;;;;;;;5115601;27;20042;-75
2023/09/25 11:31:44;;;;;;;6.93;6.22;;;;;;;;;;5115459;27;20051;-76
2023/09/25 11:34:10;;;;;;;7.22;6.53;;;;;;;;;;5114240;27;20061;-74
2023/09/25 11:36:43;;;;;;;9.20;6.88;;;;;;;;;;5112681;27;20037;-76
2023/09/25 11:39:15;;;;;;;7.70;6.38;;;;;;;;;;5114411;27;20045;-76
2023/09/25 11:41:40;;;;;;;6.72;6.10;;;;;;;;;;5116641;27;20030;-75
2023/09/25 11:44:06;;;;;;;7.47;6.72;;;;;;;;;;5105071;27;20031;-74
2023/09/25 11:46:31;;;;;;;9.20;6.60;;;;;;;;;;5110257;27;20095;-74
2023/09/25 11:48:56;;;;;;;8.85;7.20;;;;;;;;;;5117835;27;20029;-74
2023/09/25 11:51:22;;;;;;;8.40;5.75;;;;;;;;;;5116506;27;20035;-76
2023/09/25 11:53:49;;;;;;;9.48;6.40;;;;;;;;;;5113688;27;20434;-74
2023/09/25 11:56:15;;;;;;;9.40;6.30;;;;;;;;;;5114019;27;20039;-74
2023/09/25 11:58:40;;;;;;;8.63;6.55;;;;;;;;;;5116587;27;20023;-74
2023/09/25 12:01:05;;;;;;;7.78;6.05;;;;;;;;;;5116203;27;20037;-74
2023/09/25 12:03:38;;;;;;;7.22;6.53;;;;;;;;;;5114443;27;20115;-75
2023/09/25 12:06:04;;;;;;;7.78;6.50;;;;;;;;;;5116741;27;20088;-75
2023/09/25 12:08:29;;;;;;;8.77;6.32;;;;;;;;;;5116965;27;20015;-75
2023/09/25 12:10:55;;;;;;;6.88;6.28;;;;;;;;;;5115664;27;20336;-75
2023/09/25 12:13:20;;;;;;;8.27;6.40;;;;;;;;;;5116549;27;20050;-75
2023/09/25 12:15:46;;;;;;;6.80;6.03;;;;;;;;;;5116451;27;20033;-74
2023/09/25 12:18:11;;;;;;;9.15;6.28;;;;;;;;;;5115660;27;20123;-75
2023/09/25 12:20:41;;;;;;;9.10;7.70;;;;;;;;;;5113998;27;20091;-74
2023/09/25 12:23:06;;;;;;;9.40;8.40;;;;;;;;;;5113959;27;20037;-73
2023/09/25 12:25:32;;;;;;;12.25;8.57;;;;;;;;;;5117091;27;20031;-74
2023/09/25 12:27:57;;;;;;;9.35;7.20;;;;;;;;;;5114197;27;20019;-74
2023/09/25 12:30:22;;;;;;;12.05;7.75;;;;;;;;;;5114368;27;20028;-74
2023/09/25 12:32:48;;;;;;;8.57;7.68;;;;;;;;;;5113488;27;20039;-76
2023/09/25 12:35:15;;;;;;;11.95;7.15;;;;;;;;;;5112890;27;20035;-77
2023/09/25 12:37:41;;;;;;;9.80;7.30;;;;;;;;;;5114379;27;20113;-76
2023/09/25 12:40:07;;;;;;;11.90;6.78;;;;;;;;;;5116474;27;20118;-75
2023/09/25 12:42:33;;;;;;;9.25;6.97;;;;;;;;;;5113390;27;20023;-75
2023/09/25 12:44:58;;;;;;;7.50;6.70;;;;;;;;;;5114974;28;20039;-76
2023/09/25 12:47:26;;;;;;;8.32;7.47;;;;;;;;;;5115158;27;20030;-74
2023/09/25 12:49:52;;;;;;;13.90;7.32;;;;;;;;;;5114814;28;20031;-75
2023/09/25 12:52:17;;;;;;;10.30;7.93;;;;;;;;;;5115599;27;20024;-75
2023/09/25 12:54:43;;;;;;;10.40;7.35;;;;;;;;;;5112618;27;20041;-76
2023/09/25 12:57:08;;;;;;;11.60;7.53;;;;;;;;;;5115714;27;20143;-75
2023/09/25 12:59:35;;;;;;;10.43;7.78;;;;;;;;;;5111628;28;20023;-76
2023/09/25 13:02:00;;;;;;;11.50;7.93;;;;;;;;;;5114479;28;20023;-75
2023/09/25 13:04:26;;;;;;;12.45;7.05;;;;;;;;;;5108786;27;20061;-74
2023/09/25 13:06:53;;;;;;;7.80;6.75;;;;;;;;;;5105920;27;20072;-75
2023/09/25 13:09:20;;;;;;;10.80;6.88;;;;;;;;;;5105174;27;20028;-75
2023/09/25 13:11:46;;;;;;;7.35;6.68;;;;;;;;;;5113010;28;20428;-74
2023/09/25 13:14:11;;;;;;;8.43;6.95;;;;;;;;;;5111506;28;20027;-75
2023/09/25 13:16:37;;;;;;;8.40;6.60;;;;;;;;;;5106494;28;20019;-77
2023/09/25 13:19:03;;;;;;;9.82;7.00;;;;;;;;;;5103161;27;20023;-74
2023/09/25 13:21:28;;;;;;;10.15;6.72;;;;;;;;;;5101567;28;20039;-76
2023/09/25 13:23:56;;;;;;;10.68;7.47;;;;;;;;;;5102148;28;20023;-78
2023/09/25 13:26:22;;;;;;;9.77;6.95;;;;;;;;;;5111103;27;20353;-77
2023/09/25 13:28:48;;;;;;;11.68;7.20;;;;;;;;;;5106185;28;20504;-76
2023/09/25 13:31:13;;;;;;;8.30;6.60;;;;;;;;;;5109600;27;20016;-77
2023/09/25 13:33:38;;;;;;;7.03;6.32;;;;;;;;;;5115806;27;20466;-76
2023/09/25 13:36:05;;;;;;;7.60;6.82;;;;;;;;;;5112975;28;20362;-77
2023/09/25 13:38:31;;;;;;;10.75;7.90;;;;;;;;;;5116314;27;20054;-75
2023/09/25 13:40:56;;;;;;;8.00;7.20;;;;;;;;;;5116012;27;20077;-76
2023/09/25 13:43:22;;;;;;;10.18;7.03;;;;;;;;;;5114421;27;20031;-75
2023/09/25 13:45:47;;;;;;;8.13;6.95;;;;;;;;;;5116764;27;20479;-76
2023/09/25 13:48:12;;;;;;;11.98;6.93;;;;;;;;;;5117160;27;20026;-76
2023/09/25 13:50:38;;;;;;;9.57;7.38;;;;;;;;;;5118620;27;20094;-77
2023/09/25 13:53:03;;;;;;;12.27;8.10;;;;;;;;;;5115896;27;20034;-77
2023/09/25 13:55:28;;;;;;;11.15;7.32;;;;;;;;;;5108032;27;20635;-76
2023/09/25 13:57:54;;;;;;;7.63;6.85;;;;;;;;;;5108258;27;20070;-77
2023/09/25 14:00:20;;;;;;;9.70;7.65;;;;;;;;;;5115073;27;20042;-75
2023/09/25 14:02:45;;;;;;;8.93;7.03;;;;;;;;;;5103761;27;20100;-74
2023/09/25 14:05:13;;;;;;;11.18;7.45;;;;;;;;;;5114881;27;20042;-73
2023/09/25 14:07:39;;;;;;;9.07;6.95;;;;;;;;;;5117991;27;20030;-73
2023/09/25 14:10:05;;;;;;;8.73;7.82;;;;;;;;;;5108731;27;20038;-74
2023/09/25 14:12:30;;;;;;;7.78;6.93;;;;;;;;;;5116035;27;20357;-77
2023/09/25 14:14:57;;;;;;;11.27;7.72;;;;;;;;;;5116121;27;20084;-75
2023/09/25 14:17:22;;;;;;;9.20;7.35;;;;;;;;;;5115930;27;20027;-74
2023/09/25 14:19:47;;;;;;;8.90;7.55;;;;;;;;;;5118731;27;20338;-73
2023/09/25 14:22:13;;;;;;;12.18;7.15;;;;;;;;;;5116222;27;20027;-76
2023/09/25 14:24:38;;;;;;;8.57;7.72;;;;;;;;;;5117735;27;20119;-76
2023/09/25 14:27:03;;;;;;;10.27;7.15;;;;;;;;;;5118326;27;20063;-74